createdAt,value
2023-06-14T00:02:09.837Z,101637.22
2023-06-14T00:04:37.235Z,101647.13
2023-06-14T00:07:03.891Z,101638.81
2023-06-14T00:09:30.837Z,101643.78
2023-06-14T00:11:57.229Z,101647.66
2023-06-14T00:14:23.648Z,101641.59
2023-06-14T00:16:50.121Z,101637.88
2023-06-14T00:19:17.620Z,101641.75
2023-06-14T00:21:44.345Z,101639.28
2023-06-14T00:24:10.823Z,101642.03
2023-06-14T00:26:37.309Z,101648.22
2023-06-14T00:29:03.830Z,101656.28
2023-06-14T00:31:30.557Z,101649.06
2023-06-14T00:33:56.996Z,101653.09
2023-06-14T00:36:23.412Z,101651.22
2023-06-14T00:38:49.844Z,101647.91
2023-06-14T00:41:16.344Z,101641.84
2023-06-14T00:43:42.761Z,101641.97
2023-06-14T00:46:09.439Z,101648.44
2023-06-14T00:48:38.196Z,101652.59
2023-06-14T00:51:05.172Z,101646.50
2023-06-14T00:53:35.001Z,101642.91
2023-06-14T00:56:01.702Z,101644.03
2023-06-14T00:58:28.599Z,101650.16
2023-06-14T01:00:55.526Z,101648.56
2023-06-14T01:03:23.822Z,101642.09
2023-06-14T01:06:03.609Z,101649.69
2023-06-14T01:08:44.034Z,101654.81
2023-06-14T01:11:19.752Z,101658.69
2023-06-14T01:13:47.483Z,101647.53
2023-06-14T01:16:15.055Z,101650.81
2023-06-14T01:18:42.977Z,101649.06
2023-06-14T01:21:30.604Z,101645.34
2023-06-14T01:23:57.077Z,101649.06
2023-06-14T01:26:24.800Z,101652.22
2023-06-14T01:28:53.609Z,101647.75
2023-06-14T01:31:24.005Z,101648.75
2023-06-14T01:33:52.265Z,101646.28
2023-06-14T01:36:21.055Z,101654.13
2023-06-14T01:38:51.295Z,101654.50
2023-06-14T01:41:19.607Z,101649.44
2023-06-14T01:43:48.034Z,101650.69
2023-06-14T01:46:16.352Z,101648.63
2023-06-14T01:48:43.596Z,101659.06
2023-06-14T01:51:10.110Z,101664.19
2023-06-14T01:53:37.235Z,101652.75
2023-06-14T01:56:04.444Z,101651.66
2023-06-14T01:58:30.882Z,101654.03
2023-06-14T02:00:57.780Z,101653.53
2023-06-14T02:03:25.177Z,101648.47
2023-06-14T02:05:51.683Z,101655.41
2023-06-14T02:08:18.193Z,101647.47
2023-06-14T02:10:44.669Z,101653.31
2023-06-14T02:13:11.093Z,101655.44
2023-06-14T02:15:37.753Z,101649.25
2023-06-14T02:18:05.054Z,101647.03
2023-06-14T02:20:31.859Z,101649.34
2023-06-14T02:22:58.378Z,101642.81
2023-06-14T02:25:24.878Z,101643.28
2023-06-14T02:27:51.541Z,101650.72
2023-06-14T02:30:18.174Z,101649.50
2023-06-14T02:32:44.933Z,101647.16
2023-06-14T02:35:11.547Z,101649.50
2023-06-14T02:37:37.990Z,101652.97
2023-06-14T02:40:05.678Z,101657.19
2023-06-14T02:42:32.122Z,101653.94
2023-06-14T02:44:58.536Z,101663.31
2023-06-14T02:47:25.686Z,101661.56
2023-06-14T02:49:52.134Z,101660.09
2023-06-14T02:52:18.624Z,101658.72
2023-06-14T02:54:45.016Z,101672.09
2023-06-14T02:57:12.075Z,101667.97
2023-06-14T02:59:38.641Z,101662.25
2023-06-14T03:02:06.116Z,101671.78
2023-06-14T03:04:38.116Z,101680.53
2023-06-14T03:07:10.184Z,101670.88
2023-06-14T03:09:41.019Z,101686.91
2023-06-14T03:12:08.093Z,101682.19
2023-06-14T03:14:34.506Z,101686.97
2023-06-14T03:17:01.611Z,101682.88
2023-06-14T03:19:28.085Z,101684.97
2023-06-14T03:21:57.909Z,101694.22
2023-06-14T03:24:25.994Z,101692.69
2023-06-14T03:26:52.536Z,101698.59
2023-06-14T03:29:18.999Z,101698.69
2023-06-14T03:32:02.648Z,101705.00
2023-06-14T03:34:29.026Z,101699.38
2023-06-14T03:36:55.538Z,101701.59
2023-06-14T03:39:22.228Z,101699.97
2023-06-14T03:41:48.794Z,101702.81
2023-06-14T03:44:18.551Z,101703.88
2023-06-14T03:46:46.193Z,101712.13
2023-06-14T03:49:13.205Z,101705.72
2023-06-14T03:51:40.877Z,101707.69
2023-06-14T03:54:41.985Z,101712.25
2023-06-14T03:56:54.370Z,101717.56
2023-06-14T03:59:21.127Z,101716.69
2023-06-14T04:01:47.801Z,101715.06
2023-06-14T04:04:14.486Z,101724.22
2023-06-14T04:06:43.085Z,101724.22
2023-06-14T04:09:09.596Z,101721.38
2023-06-14T04:11:36.030Z,101727.47
2023-06-14T04:14:03.502Z,101729.22
2023-06-14T04:16:30.093Z,101732.03
2023-06-14T04:18:56.870Z,101736.16
2023-06-14T04:21:24.777Z,101734.19
2023-06-14T04:23:53.969Z,101734.97
2023-06-14T04:26:21.600Z,101739.53
2023-06-14T04:28:48.137Z,101739.19
2023-06-14T04:31:14.589Z,101738.09
2023-06-14T04:33:44.387Z,101739.59
2023-06-14T04:36:12.924Z,101742.13
2023-06-14T04:38:40.126Z,101742.88
2023-06-14T04:41:06.580Z,101740.91
2023-06-14T04:43:38.926Z,101748.75
2023-06-14T04:46:07.142Z,101747.53
2023-06-14T04:48:33.656Z,101750.66
2023-06-14T04:51:00.178Z,101746.81
2023-06-14T04:53:29.929Z,101757.59
2023-06-14T04:55:56.412Z,101753.53
2023-06-14T04:58:22.847Z,101757.88
2023-06-14T05:00:49.293Z,101753.94
2023-06-14T05:03:15.864Z,101750.78
2023-06-14T05:05:42.439Z,101759.44
2023-06-14T05:08:09.906Z,101747.69
2023-06-14T05:10:37.144Z,101747.34
2023-06-14T05:13:03.628Z,101757.00
2023-06-14T05:15:30.722Z,101757.88
2023-06-14T05:17:57.360Z,101756.66
2023-06-14T05:20:27.973Z,101761.97
2023-06-14T05:22:55.017Z,101755.41
2023-06-14T05:25:22.073Z,101761.28
2023-06-14T05:27:48.749Z,101763.66
2023-06-14T05:30:16.479Z,101766.13
2023-06-14T05:32:43.015Z,101762.19
2023-06-14T05:35:09.700Z,101771.72
2023-06-14T05:37:36.122Z,101766.03
2023-06-14T05:40:05.959Z,101773.75
2023-06-14T05:42:33.140Z,101778.34
2023-06-14T05:44:59.620Z,101779.75
2023-06-14T05:47:26.820Z,101774.81
2023-06-14T05:49:53.295Z,101771.59
2023-06-14T05:52:19.848Z,101774.94
2023-06-14T05:54:46.276Z,101780.88
2023-06-14T05:57:12.859Z,101784.09
2023-06-14T05:59:39.716Z,101783.78
2023-06-14T06:02:06.678Z,101792.56
2023-06-14T06:04:33.254Z,101797.66
2023-06-14T06:06:59.840Z,101794.31
2023-06-14T06:09:26.252Z,101794.69
2023-06-14T06:11:54.241Z,101789.59
2023-06-14T06:14:20.971Z,101795.31
2023-06-14T06:16:47.684Z,101799.28
2023-06-14T06:19:14.340Z,101800.75
2023-06-14T06:21:40.942Z,101790.34
2023-06-14T06:24:07.534Z,101794.72
2023-06-14T06:26:34.098Z,101800.66
2023-06-14T06:29:00.646Z,101800.31
2023-06-14T06:31:28.510Z,101803.41
2023-06-14T06:33:55.998Z,101801.88
2023-06-14T06:36:22.487Z,101802.50
2023-06-14T06:38:49.400Z,101797.53
2023-06-14T06:41:15.840Z,101804.22
2023-06-14T06:43:42.266Z,101805.84
2023-06-14T06:46:08.798Z,101803.97
2023-06-14T06:48:35.493Z,101809.91
2023-06-14T06:51:02.230Z,101813.84
2023-06-14T06:53:39.212Z,101812.59
2023-06-14T06:56:06.734Z,101814.06
2023-06-14T06:58:33.178Z,101816.44
2023-06-14T07:00:59.677Z,101822.13
2023-06-14T07:03:26.114Z,101826.06
2023-06-14T07:05:52.598Z,101824.84
2023-06-14T07:08:19.001Z,101826.56
2023-06-14T07:10:45.485Z,101823.56
2023-06-14T07:13:12.790Z,101825.78
2023-06-14T07:15:39.767Z,101828.28
2023-06-14T07:18:08.306Z,101831.34
2023-06-14T07:20:34.768Z,101827.22
2023-06-14T07:23:01.399Z,101826.56
2023-06-14T07:25:27.820Z,101835.84
2023-06-14T07:27:54.226Z,101835.31
2023-06-14T07:30:20.845Z,101838.09
2023-06-14T07:32:47.362Z,101843.03
2023-06-14T07:35:14.315Z,101840.91
2023-06-14T07:37:41.138Z,101838.66
2023-06-14T07:40:08.396Z,101846.19
2023-06-14T07:42:36.372Z,101846.81
2023-06-14T07:45:06.819Z,101852.31
2023-06-14T07:47:33.988Z,101847.78
2023-06-14T07:50:00.702Z,101855.44
2023-06-14T07:52:27.146Z,101850.44
2023-06-14T07:54:53.552Z,101858.09
2023-06-14T07:57:21.316Z,101853.06
2023-06-14T07:59:47.747Z,101854.22
2023-06-14T08:02:14.252Z,101862.78
2023-06-14T08:04:41.582Z,101863.38
2023-06-14T08:07:08.209Z,101858.34
2023-06-14T08:09:35.769Z,101857.06
2023-06-14T08:12:02.176Z,101856.97
2023-06-14T08:14:29.899Z,101856.72
2023-06-14T08:16:56.298Z,101862.38
2023-06-14T08:19:23.139Z,101860.06
2023-06-14T08:21:49.607Z,101857.03
2023-06-14T08:24:16.048Z,101858.38
2023-06-14T08:26:42.666Z,101853.91
2023-06-14T08:29:09.079Z,101856.50
2023-06-14T08:31:35.969Z,101854.63
2023-06-14T08:34:04.689Z,101867.03
2023-06-14T08:36:31.849Z,101859.53
2023-06-14T08:38:58.284Z,101860.81
2023-06-14T08:41:28.297Z,101857.53
2023-06-14T08:43:54.786Z,101843.53
2023-06-14T08:46:21.244Z,101851.75
2023-06-14T08:48:50.648Z,101843.38
2023-06-14T08:51:19.961Z,101847.16
2023-06-14T08:53:49.039Z,101847.00
2023-06-14T08:56:15.990Z,101850.75
2023-06-14T08:58:46.115Z,101855.78
2023-06-14T09:01:17.654Z,101848.84
2023-06-14T09:03:45.929Z,101853.00
2023-06-14T09:06:14.567Z,101858.50
2023-06-14T09:08:43.726Z,101851.53
2023-06-14T09:11:13.643Z,101861.91
2023-06-14T09:13:41.386Z,101861.91
2023-06-14T09:16:08.757Z,101863.34
2023-06-14T09:18:50.731Z,101866.38
2023-06-14T09:21:18.784Z,101862.75
2023-06-14T09:23:47.026Z,101867.34
2023-06-14T09:26:18.169Z,101859.13
2023-06-14T09:28:46.745Z,101858.88
2023-06-14T09:31:19.370Z,101861.91
2023-06-14T09:33:50.131Z,101855.78
2023-06-14T09:36:23.806Z,101861.06
2023-06-14T09:38:58.089Z,101864.81
2023-06-14T09:41:37.760Z,101864.22
2023-06-14T09:44:10.198Z,101859.13
2023-06-14T09:46:38.710Z,101857.63
2023-06-14T09:49:07.038Z,101858.19
2023-06-14T09:51:34.888Z,101862.19
2023-06-14T09:54:05.413Z,101852.94
2023-06-14T09:56:42.249Z,101865.66
2023-06-14T09:59:11.181Z,101856.81
2023-06-14T10:01:44.706Z,101840.28
2023-06-14T10:04:12.198Z,101842.16
2023-06-14T10:06:41.425Z,101844.22
2023-06-14T10:09:10.194Z,101847.91
2023-06-14T10:11:38.168Z,101846.50
2023-06-14T10:14:06.702Z,101844.69
2023-06-14T10:16:43.691Z,101842.19
2023-06-14T10:19:28.578Z,101854.44
2023-06-14T10:22:28.700Z,101849.94
2023-06-14T10:24:55.566Z,101851.34
2023-06-14T10:27:25.906Z,101848.00
2023-06-14T10:29:55.528Z,101847.53
2023-06-14T10:32:22.427Z,101846.72
2023-06-14T10:35:01.293Z,101841.91
2023-06-14T10:37:28.145Z,101843.69
2023-06-14T10:39:54.926Z,101835.25
2023-06-14T10:42:23.674Z,101840.81
2023-06-14T10:45:00.338Z,101834.22
2023-06-14T10:47:27.872Z,101846.44
2023-06-14T10:50:05.388Z,101835.44
2023-06-14T10:52:36.437Z,101844.59
2023-06-14T10:55:35.696Z,101832.41
2023-06-14T10:58:03.644Z,101846.41
2023-06-14T11:00:32.216Z,101844.22
2023-06-14T11:03:23.304Z,101847.56
2023-06-14T11:06:00.381Z,101839.56
2023-06-14T11:09:07.559Z,101835.94
2023-06-14T11:11:37.537Z,101830.97
2023-06-14T11:14:04.149Z,101835.09
2023-06-14T11:16:33.192Z,101842.19
2023-06-14T11:19:01.693Z,101837.91
2023-06-14T11:21:32.336Z,101836.06
2023-06-14T11:23:58.853Z,101827.13
2023-06-14T11:26:35.819Z,101837.13
2023-06-14T11:29:02.725Z,101838.69
2023-06-14T11:31:30.320Z,101830.25
2023-06-14T11:33:59.122Z,101824.13
2023-06-14T11:36:34.724Z,101821.03
2023-06-14T11:39:07.037Z,101823.81
2023-06-14T11:41:43.585Z,101826.41
2023-06-14T11:44:11.030Z,101810.19
2023-06-14T11:46:37.597Z,101812.78
2023-06-14T11:49:05.688Z,101816.56
2023-06-14T11:51:36.493Z,101817.81
2023-06-14T11:54:04.235Z,101808.97
2023-06-14T11:56:33.073Z,101810.00
2023-06-14T11:59:00.249Z,101817.41
2023-06-14T12:01:26.982Z,101811.72
2023-06-14T12:03:58.190Z,101819.00
2023-06-14T12:06:37.293Z,101818.44
2023-06-14T12:09:13.345Z,101808.94
2023-06-14T12:11:40.471Z,101818.63
2023-06-14T12:14:07.266Z,101808.06
2023-06-14T12:16:36.544Z,101817.72
2023-06-14T12:19:29.228Z,101808.19
2023-06-14T12:21:55.704Z,101815.44
2023-06-14T12:24:22.154Z,101815.97
2023-06-14T12:26:48.571Z,101809.22
2023-06-14T12:29:15.013Z,101812.88
2023-06-14T12:31:42.121Z,101814.56
2023-06-14T12:34:08.790Z,101816.59
2023-06-14T12:36:36.815Z,101811.75
2023-06-14T12:39:03.450Z,101811.03
2023-06-14T12:41:29.897Z,101802.47
2023-06-14T12:43:56.464Z,101820.63
2023-06-14T12:46:23.136Z,101821.13
2023-06-14T12:48:49.550Z,101814.06
2023-06-14T12:51:16.161Z,101805.78
2023-06-14T12:53:42.601Z,101813.88
2023-06-14T12:56:09.036Z,101807.16
2023-06-14T12:58:35.457Z,101814.41
2023-06-14T13:01:01.927Z,101810.25
2023-06-14T13:03:28.424Z,101813.88
2023-06-14T13:05:54.878Z,101826.84
2023-06-14T13:08:23.391Z,101824.41
2023-06-14T13:10:51.765Z,101817.59
2023-06-14T13:13:18.108Z,101821.44
2023-06-14T13:15:46.802Z,101821.59
2023-06-14T13:18:16.797Z,101821.22
2023-06-14T13:20:43.528Z,101832.50
2023-06-14T13:23:10.717Z,101833.69
2023-06-14T13:25:38.494Z,101839.88
2023-06-14T13:28:05.663Z,101826.06
2023-06-14T13:30:33.790Z,101832.59
2023-06-14T13:33:00.877Z,101828.81
2023-06-14T13:35:27.610Z,101828.97
2023-06-14T13:37:54.062Z,101833.63
2023-06-14T13:40:20.494Z,101837.63
2023-06-14T13:42:48.004Z,101826.75
2023-06-14T13:45:14.579Z,101822.69
2023-06-14T13:47:41.055Z,101824.09
2023-06-14T13:50:08.233Z,101823.47
2023-06-14T13:52:34.666Z,101816.91
2023-06-14T13:55:01.424Z,101822.19
2023-06-14T13:57:27.887Z,101817.22
2023-06-14T13:59:56.397Z,101828.41
2023-06-14T14:02:22.908Z,101811.88
2023-06-14T14:04:53.729Z,101816.53
2023-06-14T14:07:21.450Z,101805.34
2023-06-14T14:09:51.660Z,101814.34
2023-06-14T14:12:19.394Z,101808.34
2023-06-14T14:14:45.909Z,101816.13
2023-06-14T14:17:12.394Z,101806.72
2023-06-14T14:19:38.863Z,101803.59
2023-06-14T14:22:05.529Z,101803.09
2023-06-14T14:24:32.145Z,101809.84
2023-06-14T14:27:01.349Z,101801.06
2023-06-14T14:29:30.223Z,101809.16
2023-06-14T14:31:57.687Z,101803.81
2023-06-14T14:34:25.729Z,101804.00
2023-06-14T14:36:52.357Z,101800.34
2023-06-14T14:39:18.832Z,101801.75
2023-06-14T14:41:45.329Z,101804.19
2023-06-14T14:44:11.731Z,101805.22
2023-06-14T14:46:38.933Z,101796.13
2023-06-14T14:49:05.681Z,101798.03
2023-06-14T14:51:32.140Z,101800.06
2023-06-14T14:53:58.526Z,101799.91
2023-06-14T14:56:25.081Z,101802.34
2023-06-14T14:58:52.234Z,101813.56
2023-06-14T15:01:19.577Z,101806.31
2023-06-14T15:03:58.294Z,101797.22
2023-06-14T15:06:26.548Z,101802.06
2023-06-14T15:08:53.255Z,101808.63
2023-06-14T15:11:19.752Z,101798.25
2023-06-14T15:13:48.494Z,101795.81
2023-06-14T15:16:15.423Z,101808.22
2023-06-14T15:18:41.909Z,101801.63
2023-06-14T15:21:08.358Z,101798.34
2023-06-14T15:23:34.809Z,101788.50
2023-06-14T15:26:01.299Z,101784.41
2023-06-14T15:28:29.862Z,101796.69
2023-06-14T15:30:57.127Z,101801.53
2023-06-14T15:33:23.739Z,101799.66
2023-06-14T15:35:50.303Z,101795.84
2023-06-14T15:38:16.804Z,101809.81
2023-06-14T15:40:43.405Z,101798.09
2023-06-14T15:43:09.872Z,101805.88
2023-06-14T15:45:38.185Z,101809.50
2023-06-14T15:48:05.247Z,101800.72
2023-06-14T15:50:32.596Z,101803.28
2023-06-14T15:52:58.987Z,101801.56
2023-06-14T15:55:25.458Z,101809.34
2023-06-14T15:57:51.907Z,101804.13
2023-06-14T16:00:18.771Z,101811.22
2023-06-14T16:02:45.655Z,101805.88
2023-06-14T16:05:13.142Z,101803.78
2023-06-14T16:07:39.615Z,101803.28
2023-06-14T16:10:06.425Z,101803.91
2023-06-14T16:12:33.109Z,101812.00
2023-06-14T16:14:59.601Z,101807.16
2023-06-14T16:17:27.207Z,101803.03
2023-06-14T16:19:53.720Z,101801.31
2023-06-14T16:22:20.192Z,101799.56
2023-06-14T16:24:46.701Z,101800.94
2023-06-14T16:27:14.338Z,101804.22
2023-06-14T16:29:41.401Z,101811.09
2023-06-14T16:32:08.968Z,101798.13
2023-06-14T16:34:36.494Z,101805.88
2023-06-14T16:37:03.284Z,101801.56
2023-06-14T16:39:30.325Z,101802.94
2023-06-14T16:41:56.720Z,101806.72
2023-06-14T16:44:23.252Z,101802.06
2023-06-14T16:46:49.701Z,101793.81
2023-06-14T16:49:16.244Z,101798.63
2023-06-14T16:51:42.653Z,101800.69
2023-06-14T16:54:12.259Z,101800.50
2023-06-14T16:56:38.839Z,101803.88
2023-06-14T16:59:05.373Z,101803.88
2023-06-14T17:01:32.181Z,101813.50
2023-06-14T17:03:58.724Z,101812.09
2023-06-14T17:06:25.421Z,101807.59
2023-06-14T17:08:54.277Z,101813.81
2023-06-14T17:11:23.423Z,101814.13
2023-06-14T17:13:50.990Z,101808.81
2023-06-14T17:16:18.063Z,101815.50
2023-06-14T17:18:44.533Z,101811.03
2023-06-14T17:21:11.107Z,101817.38
2023-06-14T17:23:37.849Z,101813.78
2023-06-14T17:26:04.303Z,101815.66
2023-06-14T17:28:30.725Z,101820.16
2023-06-14T17:30:57.143Z,101824.25
2023-06-14T17:33:23.614Z,101825.97
2023-06-14T17:35:50.580Z,101832.84
2023-06-14T17:38:17.182Z,101829.41
2023-06-14T17:40:50.563Z,101840.19
2023-06-14T17:43:18.037Z,101836.03
2023-06-14T17:45:44.616Z,101835.66
2023-06-14T17:48:11.265Z,101840.28
2023-06-14T17:50:40.058Z,101839.75
2023-06-14T17:53:06.960Z,101841.13
2023-06-14T17:55:34.696Z,101842.31
2023-06-14T17:58:02.672Z,101840.41
2023-06-14T18:00:29.071Z,101839.88
2023-06-14T18:02:59.199Z,101843.66
2023-06-14T18:05:28.439Z,101845.00
2023-06-14T18:07:56.001Z,101851.66
2023-06-14T18:10:23.129Z,101849.94
2023-06-14T18:12:49.717Z,101843.56
2023-06-14T18:15:16.458Z,101845.47
2023-06-14T18:17:43.516Z,101848.69
2023-06-14T18:20:10.741Z,101852.63
2023-06-14T18:22:37.160Z,101854.97
2023-06-14T18:25:03.720Z,101866.28
2023-06-14T18:27:30.199Z,101859.06
2023-06-14T18:29:56.932Z,101859.53
2023-06-14T18:32:23.415Z,101856.09
2023-06-14T18:34:50.540Z,101857.44
2023-06-14T18:37:17.424Z,101862.06
2023-06-14T18:39:43.828Z,101862.69
2023-06-14T18:42:12.150Z,101868.50
2023-06-14T18:44:38.612Z,101867.25
2023-06-14T18:47:05.422Z,101870.31
2023-06-14T18:49:32.057Z,101868.75
2023-06-14T18:51:58.503Z,101866.16
2023-06-14T18:54:24.896Z,101865.75
2023-06-14T18:56:51.297Z,101868.97
2023-06-14T18:59:17.768Z,101868.09
2023-06-14T19:01:44.221Z,101871.47
2023-06-14T19:04:10.655Z,101878.28
2023-06-14T19:06:37.197Z,101882.38
2023-06-14T19:09:03.651Z,101879.63
2023-06-14T19:11:30.032Z,101883.41
2023-06-14T19:13:56.613Z,101876.63
2023-06-14T19:16:23.095Z,101886.03
2023-06-14T19:18:49.703Z,101893.13
2023-06-14T19:21:16.248Z,101884.88
2023-06-14T19:23:44.100Z,101884.63
2023-06-14T19:26:10.967Z,101896.97
2023-06-14T19:28:37.414Z,101896.25
2023-06-14T19:31:03.794Z,101902.34
2023-06-14T19:33:30.241Z,101908.47
2023-06-14T19:35:56.674Z,101909.63
2023-06-14T19:38:23.212Z,101909.34
2023-06-14T19:40:49.722Z,101916.16
2023-06-14T19:43:16.214Z,101914.72
2023-06-14T19:45:42.733Z,101912.75
2023-06-14T19:48:20.298Z,101913.19
2023-06-14T19:50:47.171Z,101918.38
2023-06-14T19:53:14.384Z,101920.25
2023-06-14T19:55:41.020Z,101927.19
2023-06-14T19:58:07.475Z,101925.75
2023-06-14T20:00:34.125Z,101925.50
2023-06-14T20:03:00.657Z,101918.88
2023-06-14T20:05:28.032Z,101926.53
2023-06-14T20:07:54.475Z,101928.25
2023-06-14T20:10:21.060Z,101936.75
2023-06-14T20:12:47.614Z,101938.06
2023-06-14T20:15:14.217Z,101933.88
2023-06-14T20:17:40.894Z,101945.00
2023-06-14T20:20:07.809Z,101945.59
2023-06-14T20:22:38.526Z,101943.69
2023-06-14T20:25:09.863Z,101952.78
2023-06-14T20:27:37.281Z,101948.72
2023-06-14T20:30:04.982Z,101952.75
2023-06-14T20:32:31.513Z,101954.63
2023-06-14T20:34:58.168Z,101953.03
2023-06-14T20:37:24.625Z,101956.94
2023-06-14T20:40:03.698Z,101954.72
2023-06-14T20:42:31.425Z,101957.47
2023-06-14T20:44:58.180Z,101952.28
2023-06-14T20:47:24.913Z,101950.97
2023-06-14T20:49:51.560Z,101961.63
2023-06-14T20:52:18.361Z,101957.97
2023-06-14T20:54:47.462Z,101962.81
2023-06-14T20:57:18.921Z,101959.06
2023-06-14T20:59:45.699Z,101964.56
2023-06-14T21:02:16.474Z,101964.53
2023-06-14T21:04:43.564Z,101970.28
2023-06-14T21:07:10.417Z,101972.94
2023-06-14T21:09:36.776Z,101979.53
2023-06-14T21:12:04.091Z,101975.47
2023-06-14T21:14:31.353Z,101979.63
2023-06-14T21:16:57.769Z,101977.91
2023-06-14T21:19:24.209Z,101977.44
2023-06-14T21:21:50.720Z,101981.84
2023-06-14T21:24:17.214Z,101978.34
2023-06-14T21:26:43.677Z,101988.09
2023-06-14T21:29:10.032Z,101983.41
2023-06-14T21:31:36.479Z,101982.31
2023-06-14T21:34:02.984Z,101977.47
2023-06-14T21:36:29.794Z,101980.88
2023-06-14T21:38:56.229Z,101990.59
2023-06-14T21:41:22.593Z,101992.72
2023-06-14T21:43:49.006Z,101978.84
2023-06-14T21:46:15.788Z,101990.00
2023-06-14T21:48:42.264Z,101992.13
2023-06-14T21:51:08.665Z,101994.97
2023-06-14T21:53:35.121Z,101990.91
2023-06-14T21:56:01.484Z,101991.69
2023-06-14T21:58:28.086Z,101994.66
2023-06-14T22:00:54.713Z,101991.69
2023-06-14T22:03:21.304Z,101998.25
2023-06-14T22:05:47.817Z,101998.88
2023-06-14T22:08:14.245Z,102002.59
2023-06-14T22:10:40.690Z,102003.97
2023-06-14T22:13:10.427Z,101999.13
2023-06-14T22:15:37.125Z,102001.84
2023-06-14T22:18:04.032Z,102001.34
2023-06-14T22:20:33.872Z,102000.59
2023-06-14T22:23:01.340Z,102004.81
2023-06-14T22:25:29.188Z,102003.59
2023-06-14T22:27:57.575Z,102007.66
2023-06-14T22:30:24.155Z,102015.09
2023-06-14T22:32:51.709Z,102014.47
2023-06-14T22:35:19.487Z,102011.13
2023-06-14T22:37:45.988Z,102015.19
2023-06-14T22:40:12.819Z,102019.16
2023-06-14T22:42:53.918Z,102007.75
2023-06-14T22:45:30.257Z,102005.59
2023-06-14T22:47:58.769Z,102009.75
2023-06-14T22:50:25.565Z,102006.91
2023-06-14T22:52:52.111Z,102007.63
2023-06-14T22:55:19.072Z,102010.84
2023-06-14T22:57:47.072Z,102003.78
2023-06-14T23:00:15.443Z,102011.19
2023-06-14T23:02:42.976Z,102012.28
2023-06-14T23:05:10.488Z,102024.28
2023-06-14T23:07:37.802Z,102020.41
2023-06-14T23:10:05.325Z,102014.44
2023-06-14T23:12:31.930Z,102014.44
2023-06-14T23:14:59.785Z,102026.34
2023-06-14T23:17:31.596Z,102013.69
2023-06-14T23:20:02.569Z,102013.81
2023-06-14T23:22:29.047Z,102015.03
2023-06-14T23:24:55.955Z,102018.13
2023-06-14T23:27:24.730Z,102017.88
2023-06-14T23:29:51.200Z,102018.75
2023-06-14T23:32:17.710Z,102022.13
2023-06-14T23:34:44.413Z,102018.16
2023-06-14T23:37:12.472Z,102020.94
2023-06-14T23:39:49.298Z,102022.97
2023-06-14T23:42:15.905Z,102029.69
2023-06-14T23:44:42.302Z,102026.59
2023-06-14T23:47:09.886Z,102022.88
2023-06-14T23:49:36.980Z,102027.72
2023-06-14T23:52:04.232Z,102028.47
2023-06-14T23:54:30.760Z,102031.94
2023-06-14T23:56:57.815Z,102039.00
2023-06-14T23:59:27.166Z,102032.06
